sensor_id;sensor_type;location;lat;lon;timestamp;temperature;humidity
17128;DHT22;8679;50.842;4.322;2023-04-25T00:00:28;8.80;13.20
17128;DHT22;8679;50.842;4.322;2023-04-25T00:02:54;8.80;11.90
17128;DHT22;8679;50.842;4.322;2023-04-25T00:05:22;8.80;19.80
17128;DHT22;8679;50.842;4.322;2023-04-25T00:07:49;8.90;16.30
17128;DHT22;8679;50.842;4.322;2023-04-25T00:10:15;8.80;22.50
17128;DHT22;8679;50.842;4.322;2023-04-25T00:12:41;8.90;17.10
17128;DHT22;8679;50.842;4.322;2023-04-25T00:15:08;8.90;4.90
17128;DHT22;8679;50.842;4.322;2023-04-25T00:17:35;8.80;1.00
17128;DHT22;8679;50.842;4.322;2023-04-25T00:20:01;8.80;10.40
17128;DHT22;8679;50.842;4.322;2023-04-25T00:22:30;8.80;5.20
17128;DHT22;8679;50.842;4.322;2023-04-25T00:24:56;8.70;11.80
17128;DHT22;8679;50.842;4.322;2023-04-25T00:27:26;8.70;18.80
17128;DHT22;8679;50.842;4.322;2023-04-25T00:29:52;8.70;32.20
17128;DHT22;8679;50.842;4.322;2023-04-25T00:32:17;8.70;33.50
17128;DHT22;8679;50.842;4.322;2023-04-25T00:34:43;8.70;41.30
17128;DHT22;8679;50.842;4.322;2023-04-25T00:37:08;8.70;44.50
17128;DHT22;8679;50.842;4.322;2023-04-25T00:39:34;8.70;51.10
17128;DHT22;8679;50.842;4.322;2023-04-25T00:42:00;8.70;70.30
17128;DHT22;8679;50.842;4.322;2023-04-25T00:44:27;8.60;91.60
17128;DHT22;8679;50.842;4.322;2023-04-25T00:46:55;8.70;99.90
17128;DHT22;8679;50.842;4.322;2023-04-25T00:49:21;8.60;99.90
17128;DHT22;8679;50.842;4.322;2023-04-25T00:51:46;8.60;99.90
17128;DHT22;8679;50.842;4.322;2023-04-25T00:54:13;8.60;99.90
17128;DHT22;8679;50.842;4.322;2023-04-25T00:56:40;8.50;99.90
17128;DHT22;8679;50.842;4.322;2023-04-25T00:59:06;8.50;99.90
17128;DHT22;8679;50.842;4.322;2023-04-25T01:01:32;8.50;99.90
17128;DHT22;8679;50.842;4.322;2023-04-25T01:03:59;8.50;99.90
17128;DHT22;8679;50.842;4.322;2023-04-25T01:06:26;8.50;99.90
17128;DHT22;8679;50.842;4.322;2023-04-25T01:08:53;8.50;99.90
17128;DHT22;8679;50.842;4.322;2023-04-25T01:11:18;8.50;99.90
17128;DHT22;8679;50.842;4.322;2023-04-25T01:13:44;8.50;99.90
17128;DHT22;8679;50.842;4.322;2023-04-25T01:16:10;8.50;99.90
17128;DHT22;8679;50.842;4.322;2023-04-25T01:18:40;8.50;99.90
17128;DHT22;8679;50.842;4.322;2023-04-25T01:21:08;8.40;99.90
17128;DHT22;8679;50.842;4.322;2023-04-25T01:23:36;8.40;99.90
17128;DHT22;8679;50.842;4.322;2023-04-25T01:26:02;8.40;99.90
17128;DHT22;8679;50.842;4.322;2023-04-25T01:28:28;8.40;99.90
17128;DHT22;8679;50.842;4.322;2023-04-25T01:30:54;8.40;99.90
17128;DHT22;8679;50.842;4.322;2023-04-25T01:33:21;8.40;99.90
17128;DHT22;8679;50.842;4.322;2023-04-25T01:35:46;8.40;99.90
17128;DHT22;8679;50.842;4.322;2023-04-25T01:38:13;8.40;99.90
17128;DHT22;8679;50.842;4.322;2023-04-25T01:40:40;8.40;99.90
17128;DHT22;8679;50.842;4.322;2023-04-25T01:43:08;8.40;99.90
17128;DHT22;8679;50.842;4.322;2023-04-25T01:45:37;8.40;99.90
17128;DHT22;8679;50.842;4.322;2023-04-25T01:48:10;8.40;99.90
17128;DHT22;8679;50.842;4.322;2023-04-25T01:50:38;8.30;99.90
17128;DHT22;8679;50.842;4.322;2023-04-25T01:53:04;8.30;99.90
17128;DHT22;8679;50.842;4.322;2023-04-25T01:55:30;8.40;99.90
17128;DHT22;8679;50.842;4.322;2023-04-25T01:57:56;8.30;99.90
17128;DHT22;8679;50.842;4.322;2023-04-25T02:00:22;8.40;99.90
17128;DHT22;8679;50.842;4.322;2023-04-25T02:02:48;8.40;99.90
17128;DHT22;8679;50.842;4.322;2023-04-25T02:05:16;8.40;99.90
17128;DHT22;8679;50.842;4.322;2023-04-25T02:07:42;8.40;99.90
17128;DHT22;8679;50.842;4.322;2023-04-25T02:10:08;8.40;99.90
17128;DHT22;8679;50.842;4.322;2023-04-25T02:12:35;8.30;99.90
17128;DHT22;8679;50.842;4.322;2023-04-25T02:15:01;8.30;99.90
17128;DHT22;8679;50.842;4.322;2023-04-25T02:17:27;8.30;99.90
17128;DHT22;8679;50.842;4.322;2023-04-25T02:19:53;8.30;99.90
17128;DHT22;8679;50.842;4.322;2023-04-25T02:22:19;8.30;99.90
17128;DHT22;8679;50.842;4.322;2023-04-25T02:24:46;8.20;99.90
17128;DHT22;8679;50.842;4.322;2023-04-25T02:27:12;8.20;99.90
17128;DHT22;8679;50.842;4.322;2023-04-25T02:29:37;8.20;99.90
17128;DHT22;8679;50.842;4.322;2023-04-25T02:32:03;8.20;99.90
17128;DHT22;8679;50.842;4.322;2023-04-25T02:34:29;8.20;99.90
17128;DHT22;8679;50.842;4.322;2023-04-25T02:36:55;8.10;99.90
17128;DHT22;8679;50.842;4.322;2023-04-25T02:39:21;8.10;99.90
17128;DHT22;8679;50.842;4.322;2023-04-25T02:41:47;8.10;99.90
17128;DHT22;8679;50.842;4.322;2023-04-25T02:44:13;8.10;99.90
17128;DHT22;8679;50.842;4.322;2023-04-25T02:46:39;8.10;99.90
17128;DHT22;8679;50.842;4.322;2023-04-25T02:49:04;8.10;99.90
17128;DHT22;8679;50.842;4.322;2023-04-25T02:51:30;8.10;99.90
17128;DHT22;8679;50.842;4.322;2023-04-25T02:53:56;8.10;99.90
17128;DHT22;8679;50.842;4.322;2023-04-25T02:56:22;8.10;99.90
17128;DHT22;8679;50.842;4.322;2023-04-25T02:58:47;8.10;99.90
17128;DHT22;8679;50.842;4.322;2023-04-25T03:01:13;8.00;99.90
17128;DHT22;8679;50.842;4.322;2023-04-25T03:03:39;8.10;99.90
17128;DHT22;8679;50.842;4.322;2023-04-25T03:06:05;8.10;99.90
17128;DHT22;8679;50.842;4.322;2023-04-25T03:08:31;8.10;99.90
17128;DHT22;8679;50.842;4.322;2023-04-25T03:10:58;8.10;99.90
17128;DHT22;8679;50.842;4.322;2023-04-25T03:13:24;8.10;99.90
17128;DHT22;8679;50.842;4.322;2023-04-25T03:15:49;8.00;99.90
17128;DHT22;8679;50.842;4.322;2023-04-25T03:18:15;8.10;99.90
17128;DHT22;8679;50.842;4.322;2023-04-25T03:20:41;8.10;99.90
17128;DHT22;8679;50.842;4.322;2023-04-25T03:23:07;8.00;99.90
17128;DHT22;8679;50.842;4.322;2023-04-25T03:25:33;8.00;99.90
17128;DHT22;8679;50.842;4.322;2023-04-25T03:27:58;8.00;99.90
17128;DHT22;8679;50.842;4.322;2023-04-25T03:30:24;8.00;99.90
17128;DHT22;8679;50.842;4.322;2023-04-25T03:32:50;8.00;99.90
17128;DHT22;8679;50.842;4.322;2023-04-25T03:35:16;8.00;99.90
17128;DHT22;8679;50.842;4.322;2023-04-25T03:37:41;8.00;99.90
17128;DHT22;8679;50.842;4.322;2023-04-25T03:40:11;7.90;99.90
17128;DHT22;8679;50.842;4.322;2023-04-25T03:42:36;7.90;99.90
17128;DHT22;8679;50.842;4.322;2023-04-25T03:45:02;7.90;99.90
17128;DHT22;8679;50.842;4.322;2023-04-25T03:47:28;7.90;99.90
17128;DHT22;8679;50.842;4.322;2023-04-25T03:49:54;7.90;99.90
17128;DHT22;8679;50.842;4.322;2023-04-25T03:52:20;7.90;99.90
17128;DHT22;8679;50.842;4.322;2023-04-25T03:54:45;7.80;99.90
17128;DHT22;8679;50.842;4.322;2023-04-25T03:57:11;7.80;99.90
17128;DHT22;8679;50.842;4.322;2023-04-25T03:59:37;7.80;99.90
17128;DHT22;8679;50.842;4.322;2023-04-25T04:02:02;7.80;99.90
17128;DHT22;8679;50.842;4.322;2023-04-25T04:04:28;7.80;99.90
17128;DHT22;8679;50.842;4.322;2023-04-25T04:06:54;7.80;99.90
17128;DHT22;8679;50.842;4.322;2023-04-25T04:09:20;7.80;99.90
17128;DHT22;8679;50.842;4.322;2023-04-25T04:11:46;7.80;99.90
17128;DHT22;8679;50.842;4.322;2023-04-25T04:14:12;7.70;99.90
17128;DHT22;8679;50.842;4.322;2023-04-25T04:16:37;7.70;99.90
17128;DHT22;8679;50.842;4.322;2023-04-25T04:19:03;7.70;99.90
17128;DHT22;8679;50.842;4.322;2023-04-25T04:21:29;7.70;99.90
17128;DHT22;8679;50.842;4.322;2023-04-25T04:23:55;7.70;99.90
17128;DHT22;8679;50.842;4.322;2023-04-25T04:26:23;7.70;99.90
17128;DHT22;8679;50.842;4.322;2023-04-25T04:28:52;7.70;99.90
17128;DHT22;8679;50.842;4.322;2023-04-25T04:31:20;7.60;99.90
17128;DHT22;8679;50.842;4.322;2023-04-25T04:33:46;7.70;99.90
17128;DHT22;8679;50.842;4.322;2023-04-25T04:36:12;7.70;91.20
17128;DHT22;8679;50.842;4.322;2023-04-25T04:38:39;7.70;96.80
17128;DHT22;8679;50.842;4.322;2023-04-25T04:41:06;7.70;89.40
17128;DHT22;8679;50.842;4.322;2023-04-25T04:43:31;7.80;93.00
17128;DHT22;8679;50.842;4.322;2023-04-25T04:46:00;7.70;99.90
17128;DHT22;8679;50.842;4.322;2023-04-25T04:48:26;7.70;99.90
17128;DHT22;8679;50.842;4.322;2023-04-25T04:50:52;7.70;99.90
17128;DHT22;8679;50.842;4.322;2023-04-25T04:53:18;7.70;99.90
17128;DHT22;8679;50.842;4.322;2023-04-25T04:55:44;7.70;99.90
17128;DHT22;8679;50.842;4.322;2023-04-25T04:58:09;7.70;99.90
17128;DHT22;8679;50.842;4.322;2023-04-25T05:00:35;7.70;99.90
17128;DHT22;8679;50.842;4.322;2023-04-25T05:03:01;7.60;99.90
17128;DHT22;8679;50.842;4.322;2023-04-25T05:05:26;7.70;99.90
17128;DHT22;8679;50.842;4.322;2023-04-25T05:07:52;7.70;99.90
17128;DHT22;8679;50.842;4.322;2023-04-25T05:10:19;7.70;99.90
17128;DHT22;8679;50.842;4.322;2023-04-25T05:12:45;7.60;99.90
17128;DHT22;8679;50.842;4.322;2023-04-25T05:15:11;7.70;99.90
17128;DHT22;8679;50.842;4.322;2023-04-25T05:17:37;7.70;99.90
17128;DHT22;8679;50.842;4.322;2023-04-25T05:20:08;7.60;99.90
17128;DHT22;8679;50.842;4.322;2023-04-25T05:22:36;7.60;99.90
17128;DHT22;8679;50.842;4.322;2023-04-25T05:25:03;7.60;99.90
17128;DHT22;8679;50.842;4.322;2023-04-25T05:27:29;7.70;99.90
17128;DHT22;8679;50.842;4.322;2023-04-25T05:29:54;7.70;99.90
17128;DHT22;8679;50.842;4.322;2023-04-25T05:32:20;7.70;99.90
17128;DHT22;8679;50.842;4.322;2023-04-25T05:34:46;7.70;99.90
17128;DHT22;8679;50.842;4.322;2023-04-25T05:37:11;7.60;99.90
17128;DHT22;8679;50.842;4.322;2023-04-25T05:39:37;7.60;99.90
17128;DHT22;8679;50.842;4.322;2023-04-25T05:42:03;7.60;99.90
17128;DHT22;8679;50.842;4.322;2023-04-25T05:44:30;7.70;99.90
17128;DHT22;8679;50.842;4.322;2023-04-25T05:46:56;7.70;99.90
17128;DHT22;8679;50.842;4.322;2023-04-25T05:49:22;7.70;99.90
17128;DHT22;8679;50.842;4.322;2023-04-25T05:51:48;7.70;99.90
17128;DHT22;8679;50.842;4.322;2023-04-25T05:54:13;7.70;99.90
17128;DHT22;8679;50.842;4.322;2023-04-25T05:56:39;7.80;99.90
17128;DHT22;8679;50.842;4.322;2023-04-25T05:59:05;7.80;99.90
17128;DHT22;8679;50.842;4.322;2023-04-25T06:01:31;7.80;99.90
17128;DHT22;8679;50.842;4.322;2023-04-25T06:03:57;7.80;99.90
17128;DHT22;8679;50.842;4.322;2023-04-25T06:06:22;7.90;99.90
17128;DHT22;8679;50.842;4.322;2023-04-25T06:08:48;8.00;99.90
17128;DHT22;8679;50.842;4.322;2023-04-25T06:11:14;8.00;99.90
17128;DHT22;8679;50.842;4.322;2023-04-25T06:13:39;8.10;99.90
17128;DHT22;8679;50.842;4.322;2023-04-25T06:16:05;8.10;99.90
17128;DHT22;8679;50.842;4.322;2023-04-25T06:18:31;8.10;99.30
17128;DHT22;8679;50.842;4.322;2023-04-25T06:20:57;8.10;94.20
17128;DHT22;8679;50.842;4.322;2023-04-25T06:23:23;8.20;93.20
17128;DHT22;8679;50.842;4.322;2023-04-25T06:25:48;8.20;90.80
17128;DHT22;8679;50.842;4.322;2023-04-25T06:28:14;8.30;52.60
17128;DHT22;8679;50.842;4.322;2023-04-25T06:30:40;8.20;22.20
17128;DHT22;8679;50.842;4.322;2023-04-25T06:33:05;8.20;17.20
17128;DHT22;8679;50.842;4.322;2023-04-25T06:35:31;8.20;12.80
17128;DHT22;8679;50.842;4.322;2023-04-25T06:37:57;8.30;12.90
17128;DHT22;8679;50.842;4.322;2023-04-25T06:40:23;8.30;24.00
17128;DHT22;8679;50.842;4.322;2023-04-25T06:42:48;8.40;22.20
17128;DHT22;8679;50.842;4.322;2023-04-25T06:45:14;8.50;23.50
17128;DHT22;8679;50.842;4.322;2023-04-25T06:47:40;8.60;18.80
17128;DHT22;8679;50.842;4.322;2023-04-25T06:50:06;8.50;5.70
17128;DHT22;8679;50.842;4.322;2023-04-25T06:52:32;8.50;3.60
17128;DHT22;8679;50.842;4.322;2023-04-25T06:54:58;8.60;10.60
17128;DHT22;8679;50.842;4.322;2023-04-25T06:57:24;8.70;20.10
17128;DHT22;8679;50.842;4.322;2023-04-25T06:59:49;8.70;19.20
17128;DHT22;8679;50.842;4.322;2023-04-25T07:02:15;8.80;21.40
17128;DHT22;8679;50.842;4.322;2023-04-25T07:04:41;8.80;9.50
17128;DHT22;8679;50.842;4.322;2023-04-25T07:07:06;8.80;1.00
17128;DHT22;8679;50.842;4.322;2023-04-25T07:09:32;8.80;1.00
17128;DHT22;8679;50.842;4.322;2023-04-25T07:11:59;8.70;1.90
17128;DHT22;8679;50.842;4.322;2023-04-25T07:14:27;8.70;1.00
17128;DHT22;8679;50.842;4.322;2023-04-25T07:16:53;8.70;1.00
17128;DHT22;8679;50.842;4.322;2023-04-25T07:19:18;8.80;1.00
17128;DHT22;8679;50.842;4.322;2023-04-25T07:21:44;8.90;1.00
17128;DHT22;8679;50.842;4.322;2023-04-25T07:24:10;8.90;5.70
17128;DHT22;8679;50.842;4.322;2023-04-25T07:26:36;8.90;1.00
17128;DHT22;8679;50.842;4.322;2023-04-25T07:29:01;8.90;1.00
17128;DHT22;8679;50.842;4.322;2023-04-25T07:31:27;9.00;1.00
17128;DHT22;8679;50.842;4.322;2023-04-25T07:33:53;9.10;1.00
17128;DHT22;8679;50.842;4.322;2023-04-25T07:36:18;9.20;1.00
17128;DHT22;8679;50.842;4.322;2023-04-25T07:38:44;9.30;1.00
17128;DHT22;8679;50.842;4.322;2023-04-25T07:41:10;9.30;1.00
17128;DHT22;8679;50.842;4.322;2023-04-25T07:43:36;9.40;1.00
17128;DHT22;8679;50.842;4.322;2023-04-25T07:46:01;9.40;1.00
17128;DHT22;8679;50.842;4.322;2023-04-25T07:48:28;9.50;1.00
17128;DHT22;8679;50.842;4.322;2023-04-25T07:50:53;9.60;1.00
17128;DHT22;8679;50.842;4.322;2023-04-25T07:53:19;9.80;1.00
17128;DHT22;8679;50.842;4.322;2023-04-25T07:55:44;9.70;1.00
17128;DHT22;8679;50.842;4.322;2023-04-25T07:58:11;9.60;1.00
17128;DHT22;8679;50.842;4.322;2023-04-25T08:00:37;9.70;1.00
17128;DHT22;8679;50.842;4.322;2023-04-25T08:03:03;9.70;1.00
17128;DHT22;8679;50.842;4.322;2023-04-25T08:05:29;9.80;1.00
17128;DHT22;8679;50.842;4.322;2023-04-25T08:07:55;9.80;1.00
17128;DHT22;8679;50.842;4.322;2023-04-25T08:10:22;9.90;1.00
17128;DHT22;8679;50.842;4.322;2023-04-25T08:12:48;9.90;1.00
17128;DHT22;8679;50.842;4.322;2023-04-25T08:15:14;9.80;1.00
17128;DHT22;8679;50.842;4.322;2023-04-25T08:17:40;9.80;1.00
17128;DHT22;8679;50.842;4.322;2023-04-25T08:20:07;9.80;1.00
17128;DHT22;8679;50.842;4.322;2023-04-25T08:22:32;9.90;1.00
17128;DHT22;8679;50.842;4.322;2023-04-25T08:24:59;9.90;1.00
17128;DHT22;8679;50.842;4.322;2023-04-25T08:27:25;10.00;1.00
17128;DHT22;8679;50.842;4.322;2023-04-25T08:29:51;10.00;1.00
17128;DHT22;8679;50.842;4.322;2023-04-25T08:32:17;9.70;1.00
17128;DHT22;8679;50.842;4.322;2023-04-25T08:34:43;9.70;1.00
17128;DHT22;8679;50.842;4.322;2023-04-25T08:37:10;9.60;1.00
17128;DHT22;8679;50.842;4.322;2023-04-25T08:39:36;9.70;1.00
17128;DHT22;8679;50.842;4.322;2023-04-25T08:42:12;9.70;1.00
17128;DHT22;8679;50.842;4.322;2023-04-25T08:44:37;9.60;1.00
17128;DHT22;8679;50.842;4.322;2023-04-25T08:47:04;9.60;1.00
17128;DHT22;8679;50.842;4.322;2023-04-25T08:49:33;9.60;1.00
17128;DHT22;8679;50.842;4.322;2023-04-25T08:52:04;9.80;1.00
17128;DHT22;8679;50.842;4.322;2023-04-25T08:54:32;10.00;1.00
17128;DHT22;8679;50.842;4.322;2023-04-25T08:57:01;10.30;1.00
17128;DHT22;8679;50.842;4.322;2023-04-25T08:59:27;10.30;1.00
17128;DHT22;8679;50.842;4.322;2023-04-25T09:01:53;10.60;1.00
17128;DHT22;8679;50.842;4.322;2023-04-25T09:04:20;10.60;1.00
17128;DHT22;8679;50.842;4.322;2023-04-25T09:06:47;10.50;1.00
17128;DHT22;8679;50.842;4.322;2023-04-25T09:09:12;10.40;1.00
17128;DHT22;8679;50.842;4.322;2023-04-25T09:11:39;10.50;1.00
17128;DHT22;8679;50.842;4.322;2023-04-25T09:14:14;10.50;1.00
17128;DHT22;8679;50.842;4.322;2023-04-25T09:19:33;10.50;1.00
17128;DHT22;8679;50.842;4.322;2023-04-25T09:22:02;10.50;1.00
17128;DHT22;8679;50.842;4.322;2023-04-25T09:24:42;10.50;1.00
17128;DHT22;8679;50.842;4.322;2023-04-25T09:27:11;10.40;1.00
17128;DHT22;8679;50.842;4.322;2023-04-25T09:29:38;10.50;1.00
17128;DHT22;8679;50.842;4.322;2023-04-25T09:32:20;10.40;1.00
17128;DHT22;8679;50.842;4.322;2023-04-25T09:34:47;10.40;1.00
17128;DHT22;8679;50.842;4.322;2023-04-25T09:39:46;10.40;1.00
17128;DHT22;8679;50.842;4.322;2023-04-25T09:42:14;10.20;1.00
17128;DHT22;8679;50.842;4.322;2023-04-25T09:44:44;10.20;1.00
17128;DHT22;8679;50.842;4.322;2023-04-25T09:47:12;10.30;1.00
17128;DHT22;8679;50.842;4.322;2023-04-25T09:49:42;10.30;1.00
17128;DHT22;8679;50.842;4.322;2023-04-25T09:52:09;10.40;1.00
17128;DHT22;8679;50.842;4.322;2023-04-25T09:54:35;10.50;1.00
17128;DHT22;8679;50.842;4.322;2023-04-25T09:57:17;10.60;1.00
17128;DHT22;8679;50.842;4.322;2023-04-25T09:59:45;10.80;1.00
17128;DHT22;8679;50.842;4.322;2023-04-25T10:02:12;10.90;1.00
17128;DHT22;8679;50.842;4.322;2023-04-25T10:04:38;10.90;1.00
17128;DHT22;8679;50.842;4.322;2023-04-25T10:07:08;11.00;1.00
17128;DHT22;8679;50.842;4.322;2023-04-25T10:09:37;11.10;1.00
17128;DHT22;8679;50.842;4.322;2023-04-25T10:12:03;11.20;1.00
17128;DHT22;8679;50.842;4.322;2023-04-25T10:14:31;11.20;1.00
17128;DHT22;8679;50.842;4.322;2023-04-25T10:17:00;11.10;1.00
17128;DHT22;8679;50.842;4.322;2023-04-25T10:19:27;11.30;1.00
17128;DHT22;8679;50.842;4.322;2023-04-25T10:22:04;11.50;1.00
17128;DHT22;8679;50.842;4.322;2023-04-25T10:24:31;11.60;1.00
17128;DHT22;8679;50.842;4.322;2023-04-25T10:26:58;11.80;1.00
17128;DHT22;8679;50.842;4.322;2023-04-25T10:29:25;12.00;1.00
17128;DHT22;8679;50.842;4.322;2023-04-25T10:31:51;12.00;1.00
17128;DHT22;8679;50.842;4.322;2023-04-25T10:34:18;12.40;1.00
17128;DHT22;8679;50.842;4.322;2023-04-25T10:36:53;12.60;1.00
17128;DHT22;8679;50.842;4.322;2023-04-25T10:39:27;12.60;1.00
17128;DHT22;8679;50.842;4.322;2023-04-25T10:41:57;12.60;1.00
17128;DHT22;8679;50.842;4.322;2023-04-25T10:44:26;12.60;1.00
17128;DHT22;8679;50.842;4.322;2023-04-25T10:46:58;12.50;1.00
17128;DHT22;8679;50.842;4.322;2023-04-25T10:49:35;12.00;1.00
17128;DHT22;8679;50.842;4.322;2023-04-25T10:54:56;11.10;1.00
17128;DHT22;8679;50.842;4.322;2023-04-25T11:00:16;10.70;1.00
17128;DHT22;8679;50.842;4.322;2023-04-25T11:02:53;10.60;1.00
17128;DHT22;8679;50.842;4.322;2023-04-25T11:05:36;10.60;1.00
17128;DHT22;8679;50.842;4.322;2023-04-25T11:08:13;10.40;1.00
17128;DHT22;8679;50.842;4.322;2023-04-25T11:10:40;10.40;1.00
17128;DHT22;8679;50.842;4.322;2023-04-25T11:13:05;10.20;1.00
17128;DHT22;8679;50.842;4.322;2023-04-25T11:15:31;10.20;1.00
17128;DHT22;8679;50.842;4.322;2023-04-25T11:17:56;10.40;1.00
17128;DHT22;8679;50.842;4.322;2023-04-25T11:20:25;10.50;1.00
17128;DHT22;8679;50.842;4.322;2023-04-25T11:22:51;10.90;1.00
17128;DHT22;8679;50.842;4.322;2023-04-25T11:25:17;11.10;1.00
17128;DHT22;8679;50.842;4.322;2023-04-25T11:27:59;11.30;1.00
17128;DHT22;8679;50.842;4.322;2023-04-25T11:30:27;11.60;1.00
17128;DHT22;8679;50.842;4.322;2023-04-25T11:32:54;11.60;1.00
17128;DHT22;8679;50.842;4.322;2023-04-25T11:35:20;11.60;1.00
17128;DHT22;8679;50.842;4.322;2023-04-25T11:37:48;11.80;1.00
17128;DHT22;8679;50.842;4.322;2023-04-25T11:40:15;11.30;1.00
17128;DHT22;8679;50.842;4.322;2023-04-25T11:42:46;11.00;1.00
17128;DHT22;8679;50.842;4.322;2023-04-25T11:45:12;11.00;1.00
17128;DHT22;8679;50.842;4.322;2023-04-25T11:47:38;10.90;1.00
17128;DHT22;8679;50.842;4.322;2023-04-25T11:50:06;11.10;1.00
17128;DHT22;8679;50.842;4.322;2023-04-25T11:52:46;11.40;1.00
17128;DHT22;8679;50.842;4.322;2023-04-25T11:55:19;11.80;1.00
17128;DHT22;8679;50.842;4.322;2023-04-25T11:57:48;12.30;5.20
17128;DHT22;8679;50.842;4.322;2023-04-25T12:00:21;12.60;1.00
17128;DHT22;8679;50.842;4.322;2023-04-25T12:02:50;13.10;1.00
17128;DHT22;8679;50.842;4.322;2023-04-25T12:05:16;13.10;1.00
17128;DHT22;8679;50.842;4.322;2023-04-25T12:07:42;12.80;1.00
17128;DHT22;8679;50.842;4.322;2023-04-25T12:10:13;12.60;1.00
17128;DHT22;8679;50.842;4.322;2023-04-25T12:12:42;12.90;1.00
17128;DHT22;8679;50.842;4.322;2023-04-25T12:15:18;13.30;1.00
17128;DHT22;8679;50.842;4.322;2023-04-25T12:17:48;13.80;1.00
17128;DHT22;8679;50.842;4.322;2023-04-25T12:20:19;14.30;1.00
17128;DHT22;8679;50.842;4.322;2023-04-25T12:22:47;14.80;1.00
17128;DHT22;8679;50.842;4.322;2023-04-25T12:25:43;14.80;1.00
17128;DHT22;8679;50.842;4.322;2023-04-25T12:28:18;14.70;1.00
17128;DHT22;8679;50.842;4.322;2023-04-25T12:33:29;14.20;1.00
17128;DHT22;8679;50.842;4.322;2023-04-25T12:35:56;13.50;1.00
17128;DHT22;8679;50.842;4.322;2023-04-25T12:38:29;13.70;1.00
17128;DHT22;8679;50.842;4.322;2023-04-25T12:40:56;14.70;1.00
17128;DHT22;8679;50.842;4.322;2023-04-25T12:43:22;14.70;1.00
17128;DHT22;8679;50.842;4.322;2023-04-25T12:45:52;15.30;1.00
17128;DHT22;8679;50.842;4.322;2023-04-25T12:48:19;16.20;1.00
17128;DHT22;8679;50.842;4.322;2023-04-25T12:50:45;16.10;1.00
17128;DHT22;8679;50.842;4.322;2023-04-25T12:53:15;16.10;1.00
17128;DHT22;8679;50.842;4.322;2023-04-25T12:55:40;16.60;1.00
17128;DHT22;8679;50.842;4.322;2023-04-25T12:58:06;17.10;1.00
17128;DHT22;8679;50.842;4.322;2023-04-25T13:00:33;16.70;1.00
17128;DHT22;8679;50.842;4.322;2023-04-25T13:02:58;16.90;1.00
17128;DHT22;8679;50.842;4.322;2023-04-25T13:05:25;16.40;1.00
17128;DHT22;8679;50.842;4.322;2023-04-25T13:07:50;15.50;1.00
17128;DHT22;8679;50.842;4.322;2023-04-25T13:10:17;15.50;1.00
17128;DHT22;8679;50.842;4.322;2023-04-25T13:12:44;15.30;1.00
17128;DHT22;8679;50.842;4.322;2023-04-25T13:15:11;16.20;1.00
17128;DHT22;8679;50.842;4.322;2023-04-25T13:17:38;17.00;1.00
17128;DHT22;8679;50.842;4.322;2023-04-25T13:20:05;16.80;1.00
17128;DHT22;8679;50.842;4.322;2023-04-25T13:22:35;16.60;1.00
17128;DHT22;8679;50.842;4.322;2023-04-25T13:25:07;16.40;1.00
17128;DHT22;8679;50.842;4.322;2023-04-25T13:27:34;15.20;1.00
17128;DHT22;8679;50.842;4.322;2023-04-25T13:30:01;15.00;1.00
17128;DHT22;8679;50.842;4.322;2023-04-25T13:32:35;15.40;1.00
17128;DHT22;8679;50.842;4.322;2023-04-25T13:35:02;15.60;1.00
17128;DHT22;8679;50.842;4.322;2023-04-25T13:37:27;16.00;1.00
17128;DHT22;8679;50.842;4.322;2023-04-25T13:39:55;17.00;1.00
17128;DHT22;8679;50.842;4.322;2023-04-25T13:42:22;17.70;1.00
17128;DHT22;8679;50.842;4.322;2023-04-25T13:44:48;18.10;1.00
17128;DHT22;8679;50.842;4.322;2023-04-25T13:47:14;18.20;1.00
17128;DHT22;8679;50.842;4.322;2023-04-25T13:49:40;18.60;1.00
17128;DHT22;8679;50.842;4.322;2023-04-25T13:52:06;18.80;1.00
17128;DHT22;8679;50.842;4.322;2023-04-25T13:54:31;17.90;1.00
17128;DHT22;8679;50.842;4.322;2023-04-25T13:56:57;16.60;1.00
17128;DHT22;8679;50.842;4.322;2023-04-25T13:59:24;16.30;1.00
17128;DHT22;8679;50.842;4.322;2023-04-25T14:01:51;15.90;1.00
17128;DHT22;8679;50.842;4.322;2023-04-25T14:04:17;16.20;1.00
17128;DHT22;8679;50.842;4.322;2023-04-25T14:06:43;16.90;1.00
17128;DHT22;8679;50.842;4.322;2023-04-25T14:09:09;17.10;1.00
17128;DHT22;8679;50.842;4.322;2023-04-25T14:11:36;17.10;1.00
17128;DHT22;8679;50.842;4.322;2023-04-25T14:14:02;16.50;1.00
17128;DHT22;8679;50.842;4.322;2023-04-25T14:16:29;16.30;1.00
17128;DHT22;8679;50.842;4.322;2023-04-25T14:18:55;16.20;1.00
17128;DHT22;8679;50.842;4.322;2023-04-25T14:21:21;16.50;1.00
17128;DHT22;8679;50.842;4.322;2023-04-25T14:23:47;16.50;1.00
17128;DHT22;8679;50.842;4.322;2023-04-25T14:26:13;16.40;1.00
17128;DHT22;8679;50.842;4.322;2023-04-25T14:28:38;16.40;1.00
17128;DHT22;8679;50.842;4.322;2023-04-25T14:31:04;16.30;1.00
17128;DHT22;8679;50.842;4.322;2023-04-25T14:33:30;16.60;1.00
17128;DHT22;8679;50.842;4.322;2023-04-25T14:35:56;16.80;1.00
17128;DHT22;8679;50.842;4.322;2023-04-25T14:38:22;16.80;1.00
17128;DHT22;8679;50.842;4.322;2023-04-25T14:40:51;16.70;1.00
17128;DHT22;8679;50.842;4.322;2023-04-25T14:43:17;17.20;1.00
17128;DHT22;8679;50.842;4.322;2023-04-25T14:45:43;16.50;1.00
17128;DHT22;8679;50.842;4.322;2023-04-25T14:48:08;16.30;1.00
17128;DHT22;8679;50.842;4.322;2023-04-25T14:50:35;15.90;1.00
17128;DHT22;8679;50.842;4.322;2023-04-25T14:53:00;15.40;1.00
17128;DHT22;8679;50.842;4.322;2023-04-25T14:55:27;15.40;1.00
17128;DHT22;8679;50.842;4.322;2023-04-25T14:57:56;15.40;1.00
17128;DHT22;8679;50.842;4.322;2023-04-25T15:00:22;15.50;1.00
17128;DHT22;8679;50.842;4.322;2023-04-25T15:02:51;15.50;1.00
17128;DHT22;8679;50.842;4.322;2023-04-25T15:05:17;15.50;1.00
17128;DHT22;8679;50.842;4.322;2023-04-25T15:07:43;16.10;1.00
17128;DHT22;8679;50.842;4.322;2023-04-25T15:10:10;16.30;1.00
17128;DHT22;8679;50.842;4.322;2023-04-25T15:12:45;16.00;1.00
17128;DHT22;8679;50.842;4.322;2023-04-25T15:15:11;17.00;1.00
17128;DHT22;8679;50.842;4.322;2023-04-25T15:17:38;18.30;1.00
17128;DHT22;8679;50.842;4.322;2023-04-25T15:20:06;18.30;1.00
17128;DHT22;8679;50.842;4.322;2023-04-25T15:22:32;17.60;1.00
17128;DHT22;8679;50.842;4.322;2023-04-25T15:24:58;17.10;1.00
17128;DHT22;8679;50.842;4.322;2023-04-25T15:27:24;16.90;1.00
17128;DHT22;8679;50.842;4.322;2023-04-25T15:29:52;16.80;1.00
17128;DHT22;8679;50.842;4.322;2023-04-25T15:32:18;17.10;1.00
17128;DHT22;8679;50.842;4.322;2023-04-25T15:34:45;18.40;1.00
17128;DHT22;8679;50.842;4.322;2023-04-25T15:37:10;19.40;1.00
17128;DHT22;8679;50.842;4.322;2023-04-25T15:39:36;19.70;1.00
17128;DHT22;8679;50.842;4.322;2023-04-25T15:42:02;19.50;1.00
17128;DHT22;8679;50.842;4.322;2023-04-25T15:44:28;19.20;1.00
17128;DHT22;8679;50.842;4.322;2023-04-25T15:46:54;17.60;1.00
17128;DHT22;8679;50.842;4.322;2023-04-25T15:49:19;16.70;1.00
17128;DHT22;8679;50.842;4.322;2023-04-25T15:51:47;17.90;1.00
17128;DHT22;8679;50.842;4.322;2023-04-25T15:54:12;19.60;1.00
17128;DHT22;8679;50.842;4.322;2023-04-25T15:56:38;20.60;1.00
17128;DHT22;8679;50.842;4.322;2023-04-25T15:59:04;19.60;1.00
17128;DHT22;8679;50.842;4.322;2023-04-25T16:01:30;18.30;1.00
17128;DHT22;8679;50.842;4.322;2023-04-25T16:03:56;17.30;1.00
17128;DHT22;8679;50.842;4.322;2023-04-25T16:06:26;16.20;1.00
17128;DHT22;8679;50.842;4.322;2023-04-25T16:08:52;15.60;1.00
17128;DHT22;8679;50.842;4.322;2023-04-25T16:11:18;15.00;1.00
17128;DHT22;8679;50.842;4.322;2023-04-25T16:13:44;15.00;1.00
17128;DHT22;8679;50.842;4.322;2023-04-25T16:16:10;14.80;1.00